createdAt,value
2022-10-28T00:01:10.363Z,88.81
2022-10-28T00:04:16.127Z,88.37
2022-10-28T00:07:21.912Z,88.67
2022-10-28T00:10:30.375Z,88.64
2022-10-28T00:13:36.589Z,89.15
2022-10-28T00:16:46.956Z,88.78
2022-10-28T00:19:52.751Z,88.97
2022-10-28T00:22:58.381Z,89.35
2022-10-28T00:26:22.091Z,89.62
2022-10-28T00:29:28.530Z,89.54
2022-10-28T00:32:35.520Z,90.15
2022-10-28T00:35:41.207Z,89.94
2022-10-28T00:38:49.328Z,90.36
2022-10-28T00:42:03.806Z,90.17
2022-10-28T00:45:16.550Z,90.33
2022-10-28T00:48:22.249Z,90.37
2022-10-28T00:51:35.353Z,90.33
2022-10-28T00:54:48.994Z,90.41
2022-10-28T00:58:04.884Z,89.90
2022-10-28T01:01:10.722Z,90.12
2022-10-28T01:04:19.275Z,89.38
2022-10-28T01:07:26.492Z,89.57
2022-10-28T01:11:08.832Z,89.66
2022-10-28T01:14:49.558Z,89.26
2022-10-28T01:18:15.998Z,88.82
2022-10-28T01:22:06.411Z,88.72
2022-10-28T01:26:00.513Z,88.11
2022-10-28T01:29:58.776Z,87.53
2022-10-28T01:33:25.356Z,86.88
2022-10-28T01:36:50.699Z,86.67
2022-10-28T01:40:11.198Z,87.05
2022-10-28T01:43:29.742Z,85.87
2022-10-28T01:46:48.545Z,86.36
2022-10-28T01:50:11.758Z,86.21
2022-10-28T01:53:27.150Z,85.49
2022-10-28T01:56:46.470Z,86.53
2022-10-28T01:59:53.812Z,86.56
2022-10-28T02:02:59.686Z,86.62
2022-10-28T02:06:18.839Z,86.99
2022-10-28T02:09:54.865Z,86.95
2022-10-28T02:13:14.648Z,87.46
2022-10-28T02:16:34.706Z,86.34
2022-10-28T02:19:56.903Z,85.99
2022-10-28T02:23:23.590Z,84.46
2022-10-28T02:26:39.897Z,83.74
2022-10-28T02:29:57.452Z,83.24
2022-10-28T02:33:09.592Z,82.78
2022-10-28T02:36:20.268Z,82.58
2022-10-28T02:39:36.884Z,82.54
2022-10-28T02:42:51.985Z,83.31
2022-10-28T02:46:05.372Z,85.36
2022-10-28T02:49:16.738Z,86.04
2022-10-28T02:52:29.176Z,86.81
2022-10-28T02:55:46.422Z,85.99
2022-10-28T02:58:52.608Z,86.06
2022-10-28T03:01:58.541Z,85.90
2022-10-28T03:05:04.268Z,85.67
2022-10-28T03:08:10.179Z,86.60
2022-10-28T03:11:20.759Z,87.48
2022-10-28T03:14:26.510Z,89.10
2022-10-28T03:17:32.254Z,89.60
2022-10-28T03:20:40.398Z,89.04
2022-10-28T03:23:45.992Z,89.09
2022-10-28T03:26:55.904Z,88.56
2022-10-28T03:30:01.466Z,87.15
2022-10-28T03:33:13.480Z,86.57
2022-10-28T03:36:19.074Z,86.10
2022-10-28T03:39:24.732Z,86.02
2022-10-28T03:42:40.412Z,86.40
2022-10-28T03:45:48.989Z,86.72
2022-10-28T03:48:56.223Z,87.18
2022-10-28T03:52:01.832Z,87.50
2022-10-28T03:55:08.638Z,88.49
2022-10-28T03:58:25.286Z,89.38
2022-10-28T04:01:30.931Z,91.74
2022-10-28T04:04:36.580Z,91.71
2022-10-28T04:07:42.159Z,91.42
2022-10-28T04:10:49.538Z,89.16
2022-10-28T04:13:57.738Z,88.51
2022-10-28T04:17:03.286Z,89.15
2022-10-28T04:20:11.240Z,88.70
2022-10-28T04:23:26.744Z,87.34
2022-10-28T04:26:36.737Z,86.12
2022-10-28T04:29:44.882Z,85.46
2022-10-28T04:32:50.596Z,85.36
2022-10-28T04:35:56.125Z,85.09
2022-10-28T04:39:01.834Z,84.03
2022-10-28T04:42:07.654Z,83.22
2022-10-28T04:45:16.129Z,82.70
2022-10-28T04:48:21.674Z,81.85
2022-10-28T04:51:28.835Z,81.32
2022-10-28T04:54:34.444Z,81.19
2022-10-28T04:57:39.965Z,80.92
2022-10-28T05:00:48.551Z,80.87
2022-10-28T05:03:54.126Z,81.04
2022-10-28T05:06:59.761Z,81.41
2022-10-28T05:10:05.422Z,81.31
2022-10-28T05:13:11.189Z,81.44
2022-10-28T05:16:20.424Z,82.08
2022-10-28T05:19:26.051Z,81.61
2022-10-28T05:22:31.697Z,81.45
2022-10-28T05:25:37.570Z,81.67
2022-10-28T05:28:43.621Z,81.71
2022-10-28T05:31:58.639Z,81.67
2022-10-28T05:35:04.502Z,81.59
2022-10-28T05:38:10.680Z,81.47
2022-10-28T05:41:16.505Z,81.30
2022-10-28T05:44:22.191Z,81.26
2022-10-28T05:47:30.862Z,80.65
2022-10-28T05:50:37.620Z,80.69
2022-10-28T05:53:44.678Z,81.06
2022-10-28T05:56:50.427Z,80.67
2022-10-28T05:59:56.208Z,80.01
2022-10-28T06:03:10.909Z,80.11
2022-10-28T06:06:16.556Z,79.83
2022-10-28T06:09:24.376Z,80.22
2022-10-28T06:12:28.753Z,80.01
2022-10-28T06:15:34.450Z,80.98
2022-10-28T06:18:42.680Z,80.22
2022-10-28T06:21:48.374Z,80.57
2022-10-28T06:24:54.500Z,79.98
2022-10-28T06:28:05.830Z,79.29
2022-10-28T06:31:15.410Z,79.97
2022-10-28T06:34:23.665Z,80.10
2022-10-28T06:37:29.408Z,79.70
2022-10-28T06:40:35.321Z,79.01
2022-10-28T06:43:41.154Z,78.88
2022-10-28T06:46:48.391Z,77.47
2022-10-28T06:49:57.134Z,76.38
2022-10-28T06:53:02.949Z,76.11
2022-10-28T06:56:10.207Z,74.83
2022-10-28T06:59:16.088Z,74.15
2022-10-28T07:02:21.944Z,73.19
2022-10-28T07:05:31.930Z,73.25
2022-10-28T07:08:37.830Z,73.90
2022-10-28T07:11:43.886Z,72.07
2022-10-28T07:14:49.767Z,70.77
2022-10-28T07:17:56.797Z,68.87
2022-10-28T07:21:05.729Z,67.98
2022-10-28T07:24:12.460Z,66.67
2022-10-28T07:27:18.385Z,66.24
2022-10-28T07:30:24.337Z,66.59
2022-10-28T07:33:30.243Z,66.50
2022-10-28T07:36:38.969Z,66.66
2022-10-28T07:39:45.393Z,66.29
2022-10-28T07:42:55.069Z,65.00
2022-10-28T07:46:01.934Z,64.74
2022-10-28T07:49:07.950Z,63.72
2022-10-28T07:52:16.472Z,63.99
2022-10-28T07:55:22.932Z,63.48
2022-10-28T07:58:29.205Z,62.11
2022-10-28T08:01:35.051Z,62.17
2022-10-28T08:04:41.114Z,62.30
2022-10-28T08:07:49.885Z,61.78
2022-10-28T08:10:55.699Z,61.83
2022-10-28T08:14:01.699Z,61.68
2022-10-28T08:17:07.570Z,62.46
2022-10-28T08:20:14.229Z,64.13
2022-10-28T08:23:22.695Z,62.83
2022-10-28T08:26:28.588Z,61.69
2022-10-28T08:29:37.491Z,60.89
2022-10-28T08:32:46.332Z,59.04
2022-10-28T08:35:55.183Z,57.96
2022-10-28T08:39:04.073Z,59.81
2022-10-28T08:42:37.000Z,60.15
2022-10-28T08:45:59.564Z,59.90
2022-10-28T08:49:11.779Z,59.63
2022-10-28T08:52:36.421Z,59.06
2022-10-28T08:55:51.652Z,57.93
2022-10-28T08:59:03.767Z,57.22
2022-10-28T09:02:25.403Z,54.87
2022-10-28T09:05:31.874Z,56.63
2022-10-28T09:08:44.248Z,55.52
2022-10-28T09:12:18.656Z,53.36
2022-10-28T09:15:42.313Z,51.61
2022-10-28T09:18:57.289Z,52.89
2022-10-28T09:22:25.947Z,54.60
2022-10-28T09:26:15.399Z,54.02
2022-10-28T09:30:03.800Z,53.56
2022-10-28T09:34:02.081Z,55.70
2022-10-28T09:37:34.506Z,53.52
2022-10-28T09:41:09.287Z,52.36
2022-10-28T09:44:52.615Z,51.30
2022-10-28T09:48:31.273Z,49.30
2022-10-28T09:52:15.305Z,48.31
2022-10-28T09:55:48.135Z,46.88
2022-10-28T09:59:19.430Z,46.25
2022-10-28T10:02:48.864Z,44.79
2022-10-28T10:06:32.993Z,44.81
2022-10-28T10:10:06.410Z,44.53
2022-10-28T10:13:47.380Z,44.73
2022-10-28T10:17:21.826Z,44.44
2022-10-28T10:20:57.695Z,42.71
2022-10-28T10:24:35.059Z,43.21
2022-10-28T10:28:07.808Z,42.61
2022-10-28T10:31:34.078Z,42.83
2022-10-28T10:34:40.371Z,44.00
2022-10-28T10:38:05.767Z,43.80
2022-10-28T10:41:38.388Z,43.26
2022-10-28T10:45:11.806Z,44.62
2022-10-28T10:48:18.995Z,44.12
2022-10-28T10:51:30.249Z,44.48
2022-10-28T10:54:41.653Z,44.24
2022-10-28T10:57:52.154Z,43.79
2022-10-28T11:01:05.024Z,45.98
2022-10-28T11:04:19.630Z,43.67
2022-10-28T11:07:28.476Z,44.97
2022-10-28T11:10:38.148Z,45.37
2022-10-28T11:13:46.322Z,46.00
2022-10-28T11:16:55.020Z,46.63
2022-10-28T11:20:21.031Z,44.94
2022-10-28T11:23:52.605Z,45.40
2022-10-28T11:27:16.639Z,44.65
2022-10-28T11:30:33.785Z,44.80
2022-10-28T11:34:02.259Z,44.31
2022-10-28T11:37:22.591Z,43.68
2022-10-28T11:40:47.081Z,45.46
2022-10-28T11:44:05.004Z,45.97
2022-10-28T11:47:41.350Z,46.56
2022-10-28T11:51:16.907Z,45.93
2022-10-28T11:54:52.685Z,44.96
2022-10-28T11:58:19.136Z,45.29
2022-10-28T12:01:47.850Z,44.83
2022-10-28T12:05:07.648Z,45.71
2022-10-28T12:08:39.646Z,47.69
2022-10-28T12:12:15.508Z,49.08
2022-10-28T12:15:39.909Z,49.60
2022-10-28T12:19:00.994Z,50.66
2022-10-28T12:22:19.601Z,50.63
2022-10-28T12:25:48.966Z,50.11
2022-10-28T12:29:14.638Z,51.01
2022-10-28T12:32:31.722Z,49.55
2022-10-28T12:35:51.381Z,48.01
2022-10-28T12:39:12.559Z,47.53
2022-10-28T12:42:27.649Z,46.77
2022-10-28T12:45:36.095Z,48.19
2022-10-28T12:48:52.986Z,47.81
2022-10-28T12:52:17.670Z,47.57
2022-10-28T12:55:37.994Z,47.67
2022-10-28T12:59:00.629Z,47.62
2022-10-28T13:02:20.049Z,46.15
2022-10-28T13:05:36.239Z,47.10
2022-10-28T13:09:26.288Z,48.87
2022-10-28T13:13:09.290Z,50.26
2022-10-28T13:16:56.760Z,52.58
2022-10-28T13:20:31.132Z,54.61
2022-10-28T13:23:51.959Z,54.74
2022-10-28T13:27:06.566Z,55.44
2022-10-28T13:30:23.029Z,56.17
2022-10-28T13:33:32.113Z,56.59
2022-10-28T13:36:45.063Z,56.98
2022-10-28T13:39:51.311Z,57.30
2022-10-28T13:43:18.995Z,57.69
2022-10-28T13:47:18.530Z,57.57
2022-10-28T13:50:37.644Z,57.76
2022-10-28T13:53:59.451Z,58.22
2022-10-28T13:57:16.874Z,57.49
2022-10-28T14:00:40.990Z,57.88
2022-10-28T14:03:55.689Z,58.17
2022-10-28T14:07:22.614Z,58.49
2022-10-28T14:10:32.311Z,58.34
2022-10-28T14:13:51.430Z,58.67
2022-10-28T14:16:59.867Z,58.76
2022-10-28T14:20:22.501Z,58.99
2022-10-28T14:24:18.433Z,58.68
2022-10-28T14:27:31.324Z,59.00
2022-10-28T14:30:39.104Z,58.74
2022-10-28T14:34:41.596Z,59.15
2022-10-28T14:38:36.640Z,59.62
2022-10-28T14:42:19.154Z,60.67
2022-10-28T14:45:43.500Z,61.15
2022-10-28T14:48:56.415Z,61.42
2022-10-28T14:52:13.563Z,62.44
2022-10-28T14:55:30.735Z,63.39
2022-10-28T14:58:43.797Z,63.85
2022-10-28T15:02:06.622Z,66.01
2022-10-28T15:05:24.948Z,67.41
2022-10-28T15:08:32.401Z,67.81
2022-10-28T15:11:38.221Z,68.25
2022-10-28T15:14:50.950Z,68.72
2022-10-28T15:17:57.910Z,68.19
2022-10-28T15:21:23.421Z,68.44
2022-10-28T15:24:29.127Z,68.23
2022-10-28T15:27:38.450Z,68.28
2022-10-28T15:30:47.109Z,68.58
2022-10-28T15:33:52.798Z,68.52
2022-10-28T15:37:02.451Z,68.26
2022-10-28T15:40:24.882Z,68.59
2022-10-28T15:43:33.793Z,69.06
2022-10-28T15:46:39.910Z,69.00
2022-10-28T15:49:46.814Z,69.49
2022-10-28T15:52:57.678Z,70.20
2022-10-28T15:56:21.730Z,70.47
2022-10-28T15:59:29.848Z,71.06
2022-10-28T16:02:46.193Z,71.85
2022-10-28T16:05:52.430Z,72.23
2022-10-28T16:09:20.624Z,72.68
2022-10-28T16:12:29.405Z,73.27
2022-10-28T16:15:36.069Z,73.23
2022-10-28T16:18:49.256Z,73.18
2022-10-28T16:21:55.146Z,73.67
2022-10-28T16:25:03.394Z,73.55
2022-10-28T16:28:18.439Z,74.45
2022-10-28T16:31:30.940Z,74.43
2022-10-28T16:34:36.683Z,74.55
2022-10-28T16:37:46.617Z,75.46
2022-10-28T16:40:58.104Z,75.11
2022-10-28T16:44:05.162Z,75.39
2022-10-28T16:47:15.712Z,75.36
2022-10-28T16:50:21.525Z,76.48
2022-10-28T16:53:27.320Z,75.72
2022-10-28T16:56:35.587Z,76.70
2022-10-28T16:59:41.316Z,76.92
2022-10-28T17:02:50.848Z,75.81
2022-10-28T17:05:56.609Z,75.98
2022-10-28T17:09:03.503Z,76.18
2022-10-28T17:12:18.225Z,76.46
2022-10-28T17:15:24.344Z,76.20
2022-10-28T17:18:30.016Z,76.07
2022-10-28T17:21:35.778Z,77.15
2022-10-28T17:24:42.327Z,77.00
2022-10-28T17:27:50.987Z,76.80
2022-10-28T17:30:57.280Z,76.82
2022-10-28T17:34:03.146Z,76.81
2022-10-28T17:37:10.613Z,77.28
2022-10-28T17:40:17.567Z,77.04
2022-10-28T17:43:27.163Z,77.43
2022-10-28T17:46:33.045Z,77.04
2022-10-28T17:49:38.961Z,77.42
2022-10-28T17:52:44.682Z,77.36
2022-10-28T17:55:59.342Z,76.68
2022-10-28T17:59:07.877Z,76.67
2022-10-28T18:02:15.379Z,77.09
2022-10-28T18:05:21.423Z,77.85
2022-10-28T18:08:28.098Z,77.41
2022-10-28T18:11:36.749Z,77.76
2022-10-28T18:14:45.442Z,77.80
2022-10-28T18:17:52.769Z,78.44
2022-10-28T18:20:59.539Z,79.12
2022-10-28T18:24:08.476Z,79.58
2022-10-28T18:27:14.586Z,79.76
2022-10-28T18:30:29.829Z,79.46
2022-10-28T18:33:37.525Z,79.67
2022-10-28T18:36:43.392Z,79.86
2022-10-28T18:39:49.554Z,79.60
2022-10-28T18:42:55.363Z,79.82
2022-10-28T18:46:06.336Z,79.98
2022-10-28T18:49:12.222Z,80.07
2022-10-28T18:52:20.655Z,79.90
2022-10-28T18:55:26.791Z,80.22
2022-10-28T18:58:32.881Z,80.24
2022-10-28T19:01:47.115Z,80.19
2022-10-28T19:04:53.194Z,79.79
2022-10-28T19:07:59.053Z,79.82
2022-10-28T19:11:06.692Z,80.17
2022-10-28T19:14:13.928Z,79.88
2022-10-28T19:17:22.306Z,79.91
2022-10-28T19:20:28.010Z,79.71
2022-10-28T19:23:34.595Z,79.61
2022-10-28T19:26:40.449Z,79.31
2022-10-28T19:29:46.340Z,80.05
2022-10-28T19:32:55.626Z,80.24
2022-10-28T19:36:20.117Z,79.75
2022-10-28T19:39:25.885Z,80.47
2022-10-28T19:42:32.071Z,80.41
2022-10-28T19:45:37.969Z,80.18
2022-10-28T19:48:51.233Z,79.32
2022-10-28T19:51:56.880Z,79.97
2022-10-28T19:55:02.525Z,79.04
2022-10-28T19:58:10.252Z,79.41
2022-10-28T20:01:17.806Z,79.14
2022-10-28T20:04:27.082Z,79.77
2022-10-28T20:07:32.705Z,79.48
2022-10-28T20:10:38.412Z,79.39
2022-10-28T20:13:45.904Z,78.99
2022-10-28T20:16:51.573Z,79.22
2022-10-28T20:19:59.808Z,78.97
2022-10-28T20:23:05.377Z,79.39
2022-10-28T20:26:13.119Z,78.79
2022-10-28T20:29:18.707Z,79.46
2022-10-28T20:32:24.766Z,79.87
2022-10-28T20:35:32.996Z,80.32
2022-10-28T20:38:41.106Z,79.54
2022-10-28T20:41:54.548Z,79.98
2022-10-28T20:45:01.597Z,79.61
2022-10-28T20:48:20.805Z,80.31
2022-10-28T20:51:37.285Z,80.62
2022-10-28T20:54:43.648Z,80.01
2022-10-28T20:57:49.425Z,80.24
2022-10-28T21:00:57.629Z,80.92
2022-10-28T21:04:07.940Z,81.41
2022-10-28T21:07:16.469Z,81.46
2022-10-28T21:10:22.415Z,80.91
2022-10-28T21:13:28.308Z,81.73
2022-10-28T21:16:34.508Z,81.71
2022-10-28T21:19:40.803Z,81.94
2022-10-28T21:22:49.338Z,81.91
2022-10-28T21:26:00.012Z,81.29
2022-10-28T21:29:06.089Z,81.73
2022-10-28T21:32:11.979Z,81.81
2022-10-28T21:35:18.305Z,81.73
2022-10-28T21:38:27.825Z,81.71
2022-10-28T21:41:33.604Z,81.61
2022-10-28T21:44:39.649Z,81.22
2022-10-28T21:47:45.478Z,80.77
2022-10-28T21:50:54.565Z,81.01
2022-10-28T21:54:16.891Z,80.74
2022-10-28T21:57:28.207Z,81.15
2022-10-28T22:00:35.701Z,81.18
2022-10-28T22:04:01.463Z,80.78
2022-10-28T22:07:07.093Z,81.17
2022-10-28T22:10:15.390Z,80.62
2022-10-28T22:13:21.012Z,80.46
2022-10-28T22:16:27.033Z,80.37
2022-10-28T22:19:32.596Z,80.18
2022-10-28T22:22:39.988Z,80.27
2022-10-28T22:25:49.164Z,80.49
2022-10-28T22:28:56.068Z,80.38
2022-10-28T22:32:01.691Z,80.95
2022-10-28T22:35:09.179Z,80.61
2022-10-28T22:38:14.818Z,80.71
2022-10-28T22:41:26.036Z,80.38
2022-10-28T22:44:37.750Z,80.15
2022-10-28T22:47:43.312Z,80.31
2022-10-28T22:50:48.861Z,80.14
2022-10-28T22:53:54.799Z,79.75
2022-10-28T22:57:03.096Z,79.40
2022-10-28T23:00:11.246Z,78.86
2022-10-28T23:03:18.216Z,78.85
2022-10-28T23:06:27.747Z,78.64
2022-10-28T23:09:33.395Z,78.54
2022-10-28T23:12:41.585Z,78.97
2022-10-28T23:15:47.104Z,78.73
2022-10-28T23:18:53.705Z,78.70
2022-10-28T23:21:59.397Z,78.93
2022-10-28T23:25:06.177Z,79.26
2022-10-28T23:28:14.449Z,78.72
2022-10-28T23:31:20.223Z,78.80
2022-10-28T23:34:27.328Z,78.99
2022-10-28T23:37:33.046Z,78.77
2022-10-28T23:40:38.711Z,79.30
2022-10-28T23:43:47.223Z,79.00
2022-10-28T23:46:52.835Z,79.74
2022-10-28T23:49:58.643Z,79.94
2022-10-28T23:53:04.493Z,80.18
2022-10-28T23:56:10.894Z,79.48
2022-10-28T23:59:19.121Z,79.56
